Time;durP1;ratioP1;P1;durP2;ratioP2;P2;SDS_P1;SDS_P2;PMS_P1;PMS_P2;Temp;Humidity;BMP_temperature;BMP_pressure;BME280_temperature;BME280_humidity;BME280_pressure;Samples;Min_cycle;Max_cycle;Signal;HPM_P1;HPM_P2
2023/10/20 05:47:04;;;;;;;10.20;8.95;;;;;;;;;;10630280;27;20404;-85
2023/10/20 05:52:05;;;;;;;8.05;6.00;;;;;;;;;;10609854;28;20164;-84
2023/10/20 05:57:12;;;;;;;11.77;9.40;;;;;;;;;;10636361;22;20510;-88
2023/10/20 06:02:14;;;;;;;9.20;7.43;;;;;;;;;;10502655;28;20491;-88
2023/10/20 06:07:41;;;;;;;6.07;5.15;;;;;;;;;;10481349;28;20029;-88
2023/10/20 06:12:49;;;;;;;9.90;8.15;;;;;;;;;;10499284;28;20132;-88
2023/10/20 06:18:10;;;;;;;6.85;6.03;;;;;;;;;;10382933;28;20026;-87
2023/10/20 06:34:52;;;;;;;6.63;5.93;;;;;;;;;;10542057;28;20044;-87
2023/10/20 06:51:19;;;;;;;8.50;7.18;;;;;;;;;;10500076;28;20152;-87
2023/10/20 06:56:22;;;;;;;8.23;7.03;;;;;;;;;;10445217;28;20037;-87
2023/10/20 07:01:52;;;;;;;7.03;6.20;;;;;;;;;;10464281;28;20031;-88
2023/10/20 07:06:54;;;;;;;4.53;3.72;;;;;;;;;;10468103;28;20396;-85
2023/10/20 07:11:55;;;;;;;6.45;4.93;;;;;;;;;;10453050;28;20033;-84
2023/10/20 07:16:57;;;;;;;5.45;4.50;;;;;;;;;;10476153;28;20059;-84
2023/10/20 07:21:58;;;;;;;5.20;4.70;;;;;;;;;;10464436;28;20025;-84
2023/10/20 07:27:01;;;;;;;6.15;5.50;;;;;;;;;;10462658;28;20408;-84
2023/10/20 07:32:03;;;;;;;4.55;4.05;;;;;;;;;;10474225;28;20484;-84
2023/10/20 07:37:06;;;;;;;4.82;4.15;;;;;;;;;;10476687;28;20059;-83
2023/10/20 07:42:07;;;;;;;6.80;4.55;;;;;;;;;;10488634;28;20052;-84
2023/10/20 07:47:08;;;;;;;4.72;4.20;;;;;;;;;;10474313;28;20143;-84
2023/10/20 07:52:09;;;;;;;5.18;4.30;;;;;;;;;;10485828;28;20017;-83
2023/10/20 07:57:12;;;;;;;4.78;3.70;;;;;;;;;;10473965;28;20037;-84
2023/10/20 08:02:14;;;;;;;4.65;2.95;;;;;;;;;;10457732;28;20033;-84
2023/10/20 08:07:15;;;;;;;4.72;3.60;;;;;;;;;;10454164;28;20025;-85
2023/10/20 08:12:17;;;;;;;3.45;3.05;;;;;;;;;;10472351;28;20131;-84
2023/10/20 08:17:18;;;;;;;3.90;3.28;;;;;;;;;;10456462;28;20032;-84
2023/10/20 08:22:19;;;;;;;4.60;4.20;;;;;;;;;;10456340;28;20031;-84
2023/10/20 08:27:20;;;;;;;3.92;2.95;;;;;;;;;;10468967;28;20029;-84
2023/10/20 08:32:21;;;;;;;4.03;2.50;;;;;;;;;;10484723;28;20040;-83
2023/10/20 08:37:22;;;;;;;3.90;2.70;;;;;;;;;;10456463;28;20104;-83
2023/10/20 08:42:23;;;;;;;3.72;2.63;;;;;;;;;;10456853;28;20413;-84
2023/10/20 08:47:25;;;;;;;2.92;2.38;;;;;;;;;;10452536;28;20496;-84
2023/10/20 08:52:27;;;;;;;2.65;2.40;;;;;;;;;;10455803;28;20033;-84
2023/10/20 08:57:29;;;;;;;2.75;2.08;;;;;;;;;;10461621;28;20465;-83
2023/10/20 09:02:37;;;;;;;3.90;2.40;;;;;;;;;;10464926;28;20025;-84
2023/10/20 09:07:38;;;;;;;2.33;2.10;;;;;;;;;;10450700;28;20060;-84
2023/10/20 09:12:40;;;;;;;3.47;2.00;;;;;;;;;;10452998;28;20025;-83
2023/10/20 09:17:41;;;;;;;2.10;1.60;;;;;;;;;;10466876;28;20020;-84
2023/10/20 09:22:42;;;;;;;2.50;2.03;;;;;;;;;;10449767;28;20100;-85
2023/10/20 09:27:43;;;;;;;3.45;1.92;;;;;;;;;;10468407;28;20036;-84
2023/10/20 09:32:46;;;;;;;2.70;1.52;;;;;;;;;;10446655;28;20025;-85
2023/10/20 09:37:53;;;;;;;2.50;1.67;;;;;;;;;;10447612;28;20051;-84
2023/10/20 09:43:00;;;;;;;2.10;1.65;;;;;;;;;;10449229;28;20024;-84
2023/10/20 09:48:12;;;;;;;2.30;1.40;;;;;;;;;;10451629;28;20479;-85
2023/10/20 09:53:15;;;;;;;3.30;1.60;;;;;;;;;;10472099;28;20056;-85
2023/10/20 09:58:26;;;;;;;2.28;1.55;;;;;;;;;;10453670;28;20456;-87
2023/10/20 10:03:27;;;;;;;;;;;;;;;;;;10472987;28;20104;-87
2023/10/20 10:08:28;;;;;;;;;;;;;;;;;;10471907;28;20379;-85
2023/10/20 10:13:35;;;;;;;3.63;2.90;;;;;;;;;;10452683;28;19908;-84
2023/10/20 10:18:45;;;;;;;2.08;1.60;;;;;;;;;;10452867;28;20028;-83
2023/10/20 10:24:03;;;;;;;2.97;1.37;;;;;;;;;;10466502;28;20051;-83
2023/10/20 10:29:04;;;;;;;2.53;1.75;;;;;;;;;;10449578;28;20033;-83
2023/10/20 10:34:05;;;;;;;3.38;1.70;;;;;;;;;;10453505;28;20035;-81
2023/10/20 10:39:06;;;;;;;3.03;2.15;;;;;;;;;;10452802;28;20049;-83
2023/10/20 10:44:08;;;;;;;3.45;2.17;;;;;;;;;;10475449;28;20052;-83
2023/10/20 10:49:10;;;;;;;2.40;1.58;;;;;;;;;;10457091;28;20025;-83
2023/10/20 10:54:11;;;;;;;3.05;1.60;;;;;;;;;;10457159;28;20020;-83
2023/10/20 10:59:12;;;;;;;3.75;1.85;;;;;;;;;;10456861;28;20056;-84
2023/10/20 11:04:13;;;;;;;2.25;1.90;;;;;;;;;;10456261;28;20025;-84
2023/10/20 11:09:19;;;;;;;2.20;1.40;;;;;;;;;;10454205;28;20036;-84
2023/10/20 11:14:23;;;;;;;3.15;2.55;;;;;;;;;;10473407;28;20469;-85
2023/10/20 11:19:24;;;;;;;1.70;1.20;;;;;;;;;;10456405;28;20489;-85
2023/10/20 11:24:26;;;;;;;1.90;1.30;;;;;;;;;;10465392;28;20048;-85
2023/10/20 11:29:31;;;;;;;4.75;3.30;;;;;;;;;;10465462;28;20029;-85
2023/10/20 11:34:35;;;;;;;2.28;1.60;;;;;;;;;;10450613;28;20021;-85
2023/10/20 11:39:37;;;;;;;3.20;2.35;;;;;;;;;;10449960;28;20082;-84
2023/10/20 11:44:38;;;;;;;3.47;1.55;;;;;;;;;;10451627;28;20032;-84
2023/10/20 11:49:39;;;;;;;2.10;1.50;;;;;;;;;;10449982;28;20032;-84
2023/10/20 11:54:40;;;;;;;3.97;1.73;;;;;;;;;;10450439;28;20025;-84
2023/10/20 11:59:41;;;;;;;2.97;1.75;;;;;;;;;;10455799;28;20119;-84
2023/10/20 12:04:42;;;;;;;5.70;3.42;;;;;;;;;;10459568;28;20075;-84
2023/10/20 12:09:43;;;;;;;1.90;1.60;;;;;;;;;;10456724;28;20123;-84
2023/10/20 12:14:44;;;;;;;4.25;2.45;;;;;;;;;;10456586;28;20068;-84
2023/10/20 12:19:46;;;;;;;3.08;2.15;;;;;;;;;;10452857;28;20067;-85
2023/10/20 12:24:47;;;;;;;6.47;4.40;;;;;;;;;;10479717;28;20024;-84
2023/10/20 12:29:48;;;;;;;4.05;2.90;;;;;;;;;;10485279;28;20101;-85
2023/10/20 12:34:49;;;;;;;3.65;2.40;;;;;;;;;;10486429;28;20040;-85
2023/10/20 12:39:51;;;;;;;3.33;2.20;;;;;;;;;;10493098;28;20044;-86
2023/10/20 12:44:52;;;;;;;3.72;2.42;;;;;;;;;;10485699;28;20025;-86
2023/10/20 12:49:57;;;;;;;3.90;2.63;;;;;;;;;;10467715;28;20524;-85
2023/10/20 12:55:00;;;;;;;4.05;2.78;;;;;;;;;;10465827;28;20048;-86
2023/10/20 13:00:01;;;;;;;4.38;2.75;;;;;;;;;;10458564;28;20029;-86
2023/10/20 13:05:04;;;;;;;3.08;2.25;;;;;;;;;;10479535;28;20032;-85
2023/10/20 13:10:05;;;;;;;4.85;3.17;;;;;;;;;;10480321;28;20040;-85
2023/10/20 13:15:09;;;;;;;3.03;1.75;;;;;;;;;;10461513;28;20021;-85
2023/10/20 13:20:12;;;;;;;3.50;3.13;;;;;;;;;;10464008;28;20074;-85
2023/10/20 13:25:15;;;;;;;2.50;2.30;;;;;;;;;;10462160;28;20029;-86
2023/10/20 13:30:38;;;;;;;5.90;4.93;;;;;;;;;;10459327;28;20029;-85
2023/10/20 13:36:11;;;;;;;2.97;2.67;;;;;;;;;;10484100;28;20036;-87
2023/10/20 13:41:12;;;;;;;3.35;2.80;;;;;;;;;;10476271;28;20032;-86
2023/10/20 13:46:13;;;;;;;4.43;3.55;;;;;;;;;;10477205;28;20047;-86
2023/10/20 13:51:14;;;;;;;3.42;2.40;;;;;;;;;;10455017;28;20451;-88
2023/10/20 13:56:15;;;;;;;5.22;4.18;;;;;;;;;;10451459;28;20449;-84
2023/10/20 14:01:16;;;;;;;4.65;2.80;;;;;;;;;;10477845;28;20029;-84
2023/10/20 14:06:17;;;;;;;4.07;2.78;;;;;;;;;;10486128;28;20025;-85
2023/10/20 14:11:20;;;;;;;4.43;3.80;;;;;;;;;;10489671;28;20044;-86
2023/10/20 14:16:21;;;;;;;5.13;4.28;;;;;;;;;;10484076;28;20055;-85
2023/10/20 14:21:23;;;;;;;5.85;3.45;;;;;;;;;;10473655;28;20051;-85
2023/10/20 14:26:24;;;;;;;4.60;4.20;;;;;;;;;;10474750;28;20026;-86
2023/10/20 14:31:30;;;;;;;5.47;4.55;;;;;;;;;;10475929;28;20055;-86
2023/10/20 14:36:33;;;;;;;4.30;3.20;;;;;;;;;;10475738;28;20097;-86
2023/10/20 14:41:37;;;;;;;5.05;3.10;;;;;;;;;;10472647;28;20029;-86
2023/10/20 14:46:44;;;;;;;5.15;4.00;;;;;;;;;;10480725;28;20017;-85
2023/10/20 14:51:45;;;;;;;5.00;2.80;;;;;;;;;;10490449;28;20039;-85
2023/10/20 14:56:47;;;;;;;5.50;4.40;;;;;;;;;;10477712;28;20037;-86
2023/10/20 15:01:49;;;;;;;4.50;2.75;;;;;;;;;;10479496;28;20485;-86
2023/10/20 15:06:50;;;;;;;4.15;2.75;;;;;;;;;;10510470;28;20017;-85
2023/10/20 15:11:51;;;;;;;6.15;3.97;;;;;;;;;;10507510;28;20025;-86
2023/10/20 15:16:52;;;;;;;5.70;2.83;;;;;;;;;;10478264;28;20060;-86
2023/10/20 15:21:53;;;;;;;4.82;2.53;;;;;;;;;;10500932;28;20021;-86
2023/10/20 15:26:56;;;;;;;4.50;3.55;;;;;;;;;;10476374;28;20059;-86
2023/10/20 15:31:57;;;;;;;4.28;2.50;;;;;;;;;;10467262;28;20025;-86
2023/10/20 15:36:58;;;;;;;4.13;2.67;;;;;;;;;;10484986;28;20393;-86
2023/10/20 15:42:00;;;;;;;2.70;2.22;;;;;;;;;;10469073;28;20370;-86
2023/10/20 15:47:01;;;;;;;3.80;2.40;;;;;;;;;;10468049;28;20098;-86
2023/10/20 15:52:03;;;;;;;3.30;2.70;;;;;;;;;;10480819;28;20025;-86
2023/10/20 15:57:04;;;;;;;3.63;2.25;;;;;;;;;;10485471;28;20049;-86
2023/10/20 16:02:07;;;;;;;3.97;2.83;;;;;;;;;;10460473;28;20097;-86
2023/10/20 16:07:09;;;;;;;4.47;2.40;;;;;;;;;;10479318;28;20021;-86
2023/10/20 16:12:10;;;;;;;4.93;2.15;;;;;;;;;;10451126;28;20025;-85
2023/10/20 16:17:11;;;;;;;3.53;2.08;;;;;;;;;;10445063;28;20031;-86
2023/10/20 16:22:12;;;;;;;6.32;2.17;;;;;;;;;;10454641;28;20172;-87
2023/10/20 16:27:14;;;;;;;5.22;1.85;;;;;;;;;;10467555;28;20029;-86
2023/10/20 16:32:15;;;;;;;2.50;1.75;;;;;;;;;;10449602;28;20025;-87
2023/10/20 16:37:17;;;;;;;3.03;2.20;;;;;;;;;;10463280;28;20469;-87
2023/10/20 16:42:18;;;;;;;3.20;2.08;;;;;;;;;;10448159;28;20115;-87
2023/10/20 16:47:19;;;;;;;4.53;2.53;;;;;;;;;;10448240;28;20031;-87
2023/10/20 16:52:20;;;;;;;2.38;1.90;;;;;;;;;;10449991;28;20112;-87
2023/10/20 16:57:21;;;;;;;2.72;2.20;;;;;;;;;;10449184;28;20025;-88
2023/10/20 17:02:22;;;;;;;3.72;2.30;;;;;;;;;;10449910;28;20025;-87
2023/10/20 17:07:23;;;;;;;2.70;1.75;;;;;;;;;;10468907;28;20096;-86
2023/10/20 17:12:24;;;;;;;2.17;1.58;;;;;;;;;;10478127;28;20039;-87
2023/10/20 17:17:25;;;;;;;2.83;1.80;;;;;;;;;;10445856;28;20059;-87
2023/10/20 17:22:26;;;;;;;3.90;2.40;;;;;;;;;;10445609;28;20037;-88
2023/10/20 17:27:27;;;;;;;4.20;2.33;;;;;;;;;;10442940;28;20032;-87
2023/10/20 17:32:28;;;;;;;3.17;1.60;;;;;;;;;;10444920;28;20017;-87
2023/10/20 17:37:31;;;;;;;3.92;1.83;;;;;;;;;;10446270;28;20057;-87
2023/10/20 17:42:33;;;;;;;2.45;1.70;;;;;;;;;;10461591;28;20477;-87
2023/10/20 17:47:43;;;;;;;2.50;1.90;;;;;;;;;;10445315;28;20036;-87
2023/10/20 17:52:45;;;;;;;2.00;1.50;;;;;;;;;;10444144;28;20388;-87
2023/10/20 17:57:46;;;;;;;2.65;1.45;;;;;;;;;;10446336;28;20291;-87
2023/10/20 18:02:48;;;;;;;2.78;1.58;;;;;;;;;;10445444;28;20213;-86
2023/10/20 18:07:49;;;;;;;2.55;1.55;;;;;;;;;;10447461;28;20029;-87
2023/10/20 18:12:50;;;;;;;2.80;1.83;;;;;;;;;;10447662;28;20396;-87
2023/10/20 18:17:52;;;;;;;1.70;1.50;;;;;;;;;;10452896;28;20092;-87
2023/10/20 18:22:53;;;;;;;2.50;1.40;;;;;;;;;;10460244;28;20036;-87
2023/10/20 18:27:54;;;;;;;2.30;1.77;;;;;;;;;;10464299;28;20029;-87
2023/10/20 18:32:55;;;;;;;1.98;1.40;;;;;;;;;;10446764;28;20492;-87
2023/10/20 18:37:57;;;;;;;3.05;2.20;;;;;;;;;;10446671;28;20036;-87
2023/10/20 18:43:00;;;;;;;2.28;1.73;;;;;;;;;;10429262;28;20025;-87
2023/10/20 18:48:01;;;;;;;1.95;1.40;;;;;;;;;;10448441;28;20032;-87
2023/10/20 18:53:02;;;;;;;2.35;1.70;;;;;;;;;;10455501;28;20120;-86
2023/10/20 18:58:05;;;;;;;3.13;1.65;;;;;;;;;;10457510;28;20036;-86
2023/10/20 19:03:06;;;;;;;3.13;1.70;;;;;;;;;;10456162;28;20025;-87
2023/10/20 19:08:07;;;;;;;3.28;1.50;;;;;;;;;;10470427;28;20021;-87
